Latest Weather Observations for Luncheon Hill

IDT60801

Issued at 10:01 pm EDT Thursday 21 October 2021 (issued every 10 minutes, with the page automatically refreshed every 10 minutes)

About weather observations | Map of weather stations | Latest weather observations for TAS | Other Formats
Station Details ID: 091259 Name: LUNCHEON HILL (FORESTRY) Lat: -41.15 Lon: 145.15 Height: 344.0 m
Data from the previous 72 hours. | See also: Recent months at Luncheon Hill
Date/Time
EDT
Temp
°C
App
Temp
°C
Dew
Point
°C
Rel
Hum
%
Delta-T
°C
Wind Press
QNH
hPa
Press
MSL
hPa
Rain since
9am
mm
Dir  Spd
km/h
Gust
km/h
Spd
kts
Gust
kts
21/10:00pm 13.3 7.1 12.8 97 0.3 ENE 37 56 20 30 - - 0.0
21/09:30pm 13.2 8.0 12.7 97 0.3 ENE 32 50 17 27 - - 0.0
21/09:28pm 13.2 8.0 12.7 97 0.3 ENE 32 50 17 27 - - 0.0
21/09:00pm 13.2 7.7 12.6 96 0.3 ENE 33 50 18 27 - - 0.0
21/08:36pm 13.2 7.7 12.6 96 0.3 ENE 33 52 18 28 - - 0.0
21/08:30pm 13.3 7.9 12.7 96 0.3 ENE 33 46 18 25 - - 0.0
21/08:07pm 13.3 8.0 12.5 95 0.4 ENE 32 50 17 27 - - 0.0
21/08:00pm 13.2 7.9 12.4 95 0.4 NE 32 46 17 25 - - 0.0
21/07:33pm 13.2 7.7 12.3 94 0.5 ENE 33 57 18 31 - - 0.0
21/07:30pm 13.2 7.7 12.4 95 0.4 ENE 33 48 18 26 - - 0.0
21/07:00pm 13.3 7.4 12.5 95 0.4 NE 35 50 19 27 - - 0.0
21/06:30pm 13.5 8.0 12.4 93 0.6 NE 33 46 18 25 - - 0.0
21/06:14pm 13.6 9.0 12.3 92 0.7 NE 28 52 15 28 - - 0.0
21/06:00pm 13.9 9.0 12.6 92 0.7 NE 30 44 16 24 - - 0.0
21/05:30pm 13.8 8.3 12.4 91 0.8 NE 33 44 18 24 - - 0.0
21/05:00pm 14.0 8.0 12.2 89 1.0 NE 35 50 19 27 - - 0.0
21/04:30pm 14.5 8.1 12.0 85 1.4 NE 37 48 20 26 - - 0.0
21/04:06pm 14.6 7.3 11.7 83 1.6 NE 41 59 22 32 - - 0.0
21/04:00pm 14.7 7.5 11.8 83 1.6 NE 41 54 22 29 - - 0.0
21/03:30pm 14.7 7.6 12.2 85 1.4 NE 41 54 22 29 - - 0.0
21/03:16pm 14.8 8.1 12.3 85 1.4 NE 39 57 21 31 - - 0.0
21/03:00pm 15.5 7.6 12.6 83 1.6 NE 46 59 25 32 - - 0.0
21/02:35pm 14.7 7.0 12.0 84 1.5 NE 44 63 24 34 - - 0.0
21/02:30pm 14.8 6.7 11.9 83 1.6 NE 46 59 25 32 - - 0.0
21/02:15pm 15.1 7.4 12.1 82 1.7 NE 44 65 24 35 - - 0.0
21/02:00pm 16.2 8.8 12.6 79 2.0 NE 43 59 23 32 - - 0.0
21/01:31pm 15.2 7.7 12.0 81 1.8 NE 43 61 23 33 - - 0.0
21/01:30pm 15.4 7.8 12.3 82 1.7 NE 44 61 24 33 - - 0.0
21/01:28pm 15.0 7.3 12.1 83 1.6 NE 44 63 24 34 - - 0.0
21/01:00pm 14.2 6.6 11.9 86 1.3 NE 43 59 23 32 - - 0.0
21/12:50pm 13.7 6.4 11.6 87 1.1 NE 41 59 22 32 - - 0.0
21/12:30pm 13.6 6.0 11.8 89 1.0 NE 43 57 23 31 - - 0.0
21/12:04pm 13.2 5.5 11.6 90 0.9 NE 43 65 23 35 - - 0.0
21/12:00pm 13.2 5.6 11.8 91 0.8 NE 43 56 23 30 - - 0.0
21/11:30am 12.9 5.1 11.3 90 0.9 NE 43 63 23 34 - - 0.0
21/11:29am 12.9 5.1 11.3 90 0.9 NE 43 63 23 34 - - 0.0
21/11:00am 12.7 6.1 11.4 92 0.7 NE 37 48 20 26 - - 0.0
21/10:30am 12.3 6.1 11.5 95 0.4 NE 35 54 19 29 - - 0.0
21/10:00am 11.6 4.6 11.4 99 0.1 ENE 39 57 21 31 - - 0.0
21/09:32am 11.5 4.4 11.0 97 0.3 NE 39 57 21 31 - - 0.0
21/09:30am 11.5 4.0 11.0 97 0.3 NE 41 57 22 31 - - 0.0
21/09:08am 11.5 4.8 10.9 96 0.3 ENE 37 56 20 30 - - 0.0
21/09:00am 11.4 4.3 10.8 96 0.3 ENE 39 56 21 30 - - 0.2
21/08:30am 11.3 4.6 11.0 98 0.2 ENE 37 57 20 31 - - 0.2
21/08:00am 11.0 4.3 11.0 100 0.0 ENE 37 56 20 30 - - 0.2
21/07:39am 10.8 4.4 10.8 100 0.0 ENE 35 54 19 29 - - 0.2
21/07:30am 10.8 4.4 10.8 100 0.0 NE 35 50 19 27 - - 0.2
21/07:01am 10.7 3.1 10.5 99 0.1 ENE 41 59 22 32 - - 0.2
21/07:00am 10.7 3.1 10.5 99 0.1 ENE 41 57 22 31 - - 0.2
21/06:35am 10.4 2.8 10.4 100 0.0 ENE 41 61 22 33 - - 0.2
21/06:30am 10.4 2.4 10.4 100 0.0 ENE 43 57 23 31 - - 0.2
21/06:00am 10.2 1.9 10.2 100 0.0 ENE 44 63 24 34 - - 0.2
21/05:30am 10.2 2.9 10.1 99 0.1 ENE 39 63 21 34 - - 0.2
21/05:02am 10.2 2.1 9.9 98 0.2 ENE 43 61 23 33 - - 0.2
21/05:00am 10.2 1.8 9.7 97 0.3 ENE 44 61 24 33 - - 0.2
21/04:30am 10.3 1.9 9.5 95 0.4 ENE 44 63 24 34 - - 0.2
21/04:00am 10.5 1.3 9.4 93 0.6 ENE 48 69 26 37 - - 0.2
21/03:30am 10.4 1.9 9.2 92 0.6 ENE 44 65 24 35 - - 0.2
21/03:00am 10.4 2.1 9.2 92 0.6 NE 43 67 23 36 - - 0.2
21/02:30am 10.2 1.8 8.8 91 0.7 ENE 43 65 23 35 - - 0.2
21/02:00am 10.1 -0.1 8.5 90 0.8 NE 52 72 28 39 - - 0.2
21/01:30am 9.9 -0.2 8.8 93 0.6 NE 52 74 28 40 - - 0.2
21/01:12am 9.9 -0.5 9.4 97 0.3 NE 54 74 29 40 - - 0.2
21/01:00am 9.9 0.3 9.6 98 0.2 NE 50 65 27 35 - - 0.2
21/12:30am 10.2 0.9 9.1 93 0.6 NE 48 69 26 37 - - 0.2
21/12:00am 10.2 0.8 8.8 91 0.7 ENE 48 70 26 38 - - 0.2
 
Date/Time
EDT
Temp
°C
App
Temp
°C
Dew
Point
°C
Rel
Hum
%
Delta-T
°C
Wind Press
QNH
hPa
Press
MSL
hPa
Rain since
9am
mm
Dir  Spd
km/h
Gust
km/h
Spd
kts
Gust
kts
20/11:30pm 10.1 1.0 8.5 90 0.8 ENE 46 74 25 40 - - 0.2
20/11:00pm 10.1 1.4 8.5 90 0.8 ENE 44 65 24 35 - - 0.2
20/10:30pm 9.9 0.7 8.2 89 0.8 ENE 46 70 25 38 - - 0.2
20/10:00pm 9.6 0.9 7.7 88 0.9 ENE 43 67 23 36 - - 0.2
20/09:30pm 9.2 0.8 7.2 87 1.0 ENE 41 59 22 32 - - 0.2
20/09:00pm 9.3 0.2 6.6 83 1.3 ENE 44 72 24 39 - - 0.2
20/08:30pm 9.4 0.9 6.8 84 1.2 ENE 41 59 22 32 - - 0.2
20/08:00pm 9.6 1.4 6.5 81 1.5 ENE 39 61 21 33 - - 0.2
20/07:35pm 9.7 2.2 6.4 80 1.6 ENE 35 54 19 29 - - 0.2
20/07:30pm 10.0 1.7 6.3 78 1.8 ENE 39 54 21 29 - - 0.2
20/07:00pm 10.6 2.3 6.2 74 2.1 ENE 39 56 21 30 - - 0.2
20/06:30pm 11.3 3.4 6.4 72 2.4 ENE 37 57 20 31 - - 0.2
20/06:01pm 11.5 3.6 6.0 69 2.6 NE 37 56 20 30 - - 0.2
20/06:00pm 11.6 4.1 6.1 69 2.6 NE 35 48 19 26 - - 0.2
20/05:30pm 12.4 4.6 6.7 68 2.8 ENE 37 57 20 31 - - 0.2
20/05:00pm 11.8 4.3 6.3 69 2.6 ENE 35 57 19 31 - - 0.2
20/04:30pm 12.4 5.0 6.7 68 2.8 ENE 35 54 19 29 - - 0.2
20/04:00pm 12.6 5.6 6.9 68 2.8 ENE 33 52 18 28 - - 0.2
20/03:30pm 12.3 5.2 6.4 67 2.9 ENE 33 56 18 30 - - 0.2
20/03:05pm 12.6 5.7 6.4 66 3.0 ENE 32 52 17 28 - - 0.2
20/03:00pm 12.6 5.7 6.4 66 3.0 ENE 32 46 17 25 - - 0.2
20/02:30pm 13.9 5.6 6.3 60 3.7 ENE 39 61 21 33 - - 0.2
20/02:03pm 13.7 5.7 5.8 59 3.8 ENE 37 56 20 30 - - 0.2
20/02:00pm 13.1 4.7 5.8 61 3.5 ENE 39 54 21 29 - - 0.2
20/01:30pm 12.9 5.3 5.8 62 3.4 ENE 35 54 19 29 - - 0.2
20/01:13pm 13.6 4.5 5.7 59 3.8 NE 43 63 23 34 - - 0.2
20/01:00pm 13.9 6.7 6.0 59 3.8 ENE 33 48 18 26 - - 0.2
20/12:47pm 13.4 5.4 5.8 60 3.7 ENE 37 56 20 30 - - 0.2
20/12:30pm 13.2 4.6 4.6 56 4.0 ENE 39 52 21 28 - - 0.2
20/12:18pm 14.0 6.6 4.9 54 4.3 ENE 33 56 18 30 - - 0.0
20/12:00pm 13.3 5.1 4.5 55 4.1 NE 37 54 20 29 - - 0.0
20/11:30am 13.0 4.8 4.9 58 3.8 ENE 37 50 20 27 - - 0.0
20/11:00am 13.4 6.4 6.0 61 3.6 NE 32 48 17 26 - - 0.0
20/10:55am 13.3 6.6 5.5 59 3.7 ENE 30 48 16 26 - - 0.0
20/10:30am 12.2 5.1 5.4 63 3.2 NE 32 43 17 23 - - 0.0
20/10:00am 11.3 4.2 5.4 67 2.8 ENE 32 50 17 27 - - 0.0
20/09:51am 10.8 3.9 4.5 65 2.9 NE 30 50 16 27 - - 0.0
20/09:30am 10.5 3.7 4.9 68 2.6 ENE 30 43 16 23 - - 0.0
20/09:13am 9.9 3.0 4.5 69 2.5 ENE 30 48 16 26 - - 0.0
20/09:00am 9.5 2.5 4.3 70 2.3 ENE 30 43 16 23 - - 1.0
20/08:48am 9.1 2.4 3.9 70 2.3 ENE 28 50 15 27 - - 1.0
20/08:30am 9.0 3.6 4.4 73 2.1 ENE 22 39 12 21 - - 1.0
20/08:00am 7.8 2.6 3.5 74 1.9 ENE 20 35 11 19 - - 1.0
20/07:30am 6.7 1.6 3.0 77 1.6 ENE 19 32 10 17 - - 1.0
20/07:00am 5.7 0.5 2.5 80 1.3 E 19 30 10 16 - - 1.0
20/06:30am 4.7 -0.5 2.2 84 1.0 E 19 30 10 16 - - 1.0
20/06:00am 4.4 -1.0 2.4 87 0.8 E 20 30 11 16 - - 1.0
20/05:30am 4.4 -0.9 2.8 89 0.7 ESE 20 28 11 15 - - 1.0
20/05:00am 4.7 -0.6 3.2 90 0.6 ESE 20 28 11 15 - - 1.0
20/04:30am 4.9 -0.7 3.4 90 0.6 ESE 22 32 12 17 - - 1.0
20/04:00am 5.0 -0.9 4.0 93 0.4 ESE 24 32 13 17 - - 1.0
20/03:30am 5.5 0.6 4.9 96 0.3 E 20 30 11 16 - - 1.0
20/03:00am 6.0 1.7 5.4 96 0.3 E 17 24 9 13 - - 1.0
20/02:30am 6.3 2.1 5.9 97 0.2 E 17 24 9 13 - - 1.0
20/02:00am 6.6 2.1 6.0 96 0.3 ENE 19 26 10 14 - - 1.0
20/01:30am 7.0 1.5 6.1 94 0.4 ENE 24 33 13 18 - - 1.0
20/01:00am 7.3 1.2 6.6 95 0.3 NE 28 35 15 19 - - 1.0
20/12:30am 7.8 2.6 7.2 96 0.3 NE 24 32 13 17 - - 1.0
20/12:00am 7.9 3.5 7.3 96 0.3 NE 20 26 11 14 - - 1.0
 
Date/Time
EDT
Temp
°C
App
Temp
°C
Dew
Point
°C
Rel
Hum
%
Delta-T
°C
Wind Press
QNH
hPa
Press
MSL
hPa
Rain since
9am
mm
Dir  Spd
km/h
Gust
km/h
Spd
kts
Gust
kts
19/11:30pm 8.1 4.0 7.8 98 0.1 NE 19 22 10 12 - - 1.0
19/11:00pm 8.3 5.8 8.0 98 0.1 NNE 11 15 6 8 - - 0.8
19/10:30pm 8.3 5.4 8.0 98 0.1 NE 13 17 7 9 - - 0.8
19/10:00pm 8.2 6.6 8.1 99 0.0 N 6 9 3 5 - - 0.8
19/09:30pm 8.5 7.0 8.4 99 0.0 E 6 17 3 9 - - 0.4
19/09:00pm 8.2 7.4 8.1 99 0.0 ESE 2 6 1 3 - - 0.4
19/08:30pm 8.3 5.8 8.2 99 0.0 SSE 11 15 6 8 - - 0.4
19/08:00pm 8.4 5.9 8.1 98 0.1 S 11 11 6 6 - - 0.4
19/07:30pm 8.8 5.9 8.0 95 0.4 SSW 13 19 7 10 - - 0.4
19/07:00pm 9.8 7.1 7.4 85 1.2 WSW 11 17 6 9 - - 0.0
19/06:30pm 10.6 7.4 6.7 77 1.9 NW 13 15 7 8 - - 0.0
19/06:00pm 10.9 8.1 6.8 76 2.0 WNW 11 17 6 9 - - 0.0
19/05:30pm 11.2 9.2 7.1 76 2.0 WSW 7 11 4 6 - - 0.0
19/05:00pm 11.4 8.6 7.1 75 2.1 SW 11 17 6 9 - - 0.0
19/04:30pm 12.2 8.6 6.9 70 2.6 WSW 15 24 8 13 - - 0.0
19/04:00pm 13.6 9.7 6.9 64 3.3 NW 17 22 9 12 - - 0.0
19/03:30pm 13.3 9.4 6.9 65 3.1 NW 17 20 9 11 - - 0.0
19/03:00pm 13.6 9.7 7.2 65 3.2 NNW 17 22 9 12 - - 0.0
19/02:30pm 13.9 10.0 5.5 57 4.0 NNW 15 22 8 12 - - 0.0
19/02:00pm 15.0 10.1 5.0 51 4.8 NNW 20 30 11 16 - - 0.0
19/01:30pm 14.7 11.5 5.0 52 4.6 NNE 11 20 6 11 - - 0.0
19/01:00pm 14.0 11.2 5.1 55 4.2 NNW 9 13 5 7 - - 0.0
19/12:30pm 17.6 13.9 6.5 48 5.6 N 15 24 8 13 - - 0.0
19/12:00pm 14.7 11.3 5.8 55 4.3 N 13 20 7 11 - - 0.0
19/11:30am 14.3 10.9 5.7 56 4.2 N 13 20 7 11 - - 0.0
19/11:00am 13.9 10.9 6.0 59 3.8 N 11 17 6 9 - - 0.0
19/10:30am 12.9 9.6 4.6 57 3.9 NE 11 20 6 11 - - 0.0
19/10:00am 11.5 8.9 6.0 69 2.6 NNW 9 13 5 7 - - 0.0
19/09:30am 11.0 8.2 5.3 68 2.7 NNW 9 13 5 7 - - 0.0
19/09:00am 10.9 9.2 5.7 70 2.4 ESE 4 9 2 5 - - 2.2
19/08:30am 9.7 7.4 5.9 77 1.8 SE 7 9 4 5 - - 2.2
19/08:00am 7.9 4.7 5.0 82 1.3 SE 11 17 6 9 - - 2.2
19/07:30am 6.6 3.0 5.2 91 0.6 SE 13 17 7 9 - - 2.2
19/07:00am 5.5 1.6 5.4 99 0.0 SE 15 19 8 10 - - 2.2
19/06:30am 4.8 0.8 4.8 100 0.0 SE 15 20 8 11 - - 2.2
19/06:00am 4.9 0.5 4.9 100 0.0 SE 17 20 9 11 - - 2.2
19/05:30am 4.7 0.3 4.7 100 0.0 SE 17 20 9 11 - - 2.2
19/05:00am 4.6 0.2 4.6 100 0.0 S 17 20 9 11 - - 2.2
19/04:30am 4.6 0.5 4.6 100 0.0 S 15 17 8 9 - - 2.0
19/04:00am 4.7 0.7 4.7 100 0.0 S 15 19 8 10 - - 2.0
19/03:30am 4.6 0.2 4.6 100 0.0 SSE 17 22 9 12 - - 2.0
19/03:00am 4.4 -0.1 4.4 100 0.0 SSE 17 20 9 11 - - 2.0
19/02:30am 4.7 -0.1 4.7 100 0.0 S 19 20 10 11 - - 2.0
19/02:00am 5.0 0.6 5.0 100 0.0 S 17 20 9 11 - - 2.0
19/01:30am 5.1 -0.2 5.1 100 0.0 S 22 32 12 17 - - 2.0
19/01:00am 5.5 1.3 5.5 100 0.0 SSE 17 24 9 13 - - 2.0
19/12:30am 6.0 2.2 6.0 100 0.0 S 15 22 8 12 - - 2.0
19/12:00am 5.9 1.2 5.9 100 0.0 S 20 30 11 16 - - 2.0
 
Date/Time
EDT
Temp
°C
App
Temp
°C
Dew
Point
°C
Rel
Hum
%
Delta-T
°C
Wind Press
QNH
hPa
Press
MSL
hPa
Rain since
9am
mm
Dir  Spd
km/h
Gust
km/h
Spd
kts
Gust
kts
18/11:30pm 6.2 1.5 6.2 100 0.0 S 20 30 11 16 - - 2.0
18/11:00pm 6.7 2.1 6.7 100 0.0 SSW 20 30 11 16 - - 2.0
18/10:30pm 6.7 2.7 6.7 100 0.0 SSW 17 24 9 13 - - 2.0

Other formats

Comma delimited format used in spreadsheet applications
http://www.bom.gov.au/fwo/IDT60801/IDT60801.95956.axf

JavaScript Object Notation format (JSON) in row-major order
http://www.bom.gov.au/fwo/IDT60801/IDT60801.95956.json

Data quality

Most of these data are generated automatically and are frequently updated. Quality checks on data are not normally performed. It is possible for incorrect values to appear. Refer to information at About Latest Weather Observations and please check the disclaimer before using these data.